| time (UTC) | temp F | wind direction | speed knots | gust knots | rain 1hr in | rain 24hr in | rain mn in | humidity % | barometer mb |
| 20260507201526 | 70 | 194 | 0.9 | 4.3 | 0.00 | 0.00 | 0.00 | 44 | 1012.3 |
| 20260507200026 | 70 | 360 | 0.0 | 5.2 | 0.00 | 0.00 | 0.00 | 47 | 1012.7 |
| 20260507194521 | 70 | 224 | 0.0 | 7.0 | 0.00 | 0.00 | 0.00 | 46 | 1012.8 |
| 20260507193018 | 69 | 259 | 0.9 | 18.2 | 0.00 | 0.00 | 0.00 | 46 | 1013.2 |
| 20260507191516 | 68 | 243 | 0.9 | 3.5 | 0.00 | 0.00 | 0.00 | 46 | 1013.3 |
| 20260507190016 | 68 | 360 | 0.9 | 11.3 | 0.00 | 0.00 | 0.00 | 49 | 1013.4 |
| 20260507184516 | 67 | 360 | 0.9 | 2.6 | 0.00 | 0.00 | 0.00 | 50 | 1013.8 |
| 20260507183008 | 66 | 196 | 0.9 | 7.8 | 0.00 | 0.00 | 0.00 | 49 | 1014.1 |
| 20260507181506 | 66 | 289 | 0.0 | 12.2 | 0.00 | 0.00 | 0.00 | 54 | 1014.1 |
| 20260507180005 | 66 | 265 | 0.0 | 11.3 | 0.00 | 0.00 | 0.00 | 55 | 1014.3 |
| 20260507174502 | 65 | 304 | 1.7 | 7.0 | 0.00 | 0.00 | 0.00 | 51 | 1014.5 |
| 20260507173059 | 64 | 236 | 0.9 | 10.4 | 0.00 | 0.00 | 0.00 | 54 | 1014.7 |
| 20260507171600 | 64 | 360 | 0.9 | 3.5 | 0.00 | 0.00 | 0.00 | 55 | 1015.2 |
| 20260507170055 | 64 | 205 | 2.6 | 7.0 | 0.00 | 0.00 | 0.00 | 56 | 1015.4 |
| 20260507164555 | 62 | 278 | 0.9 | 3.5 | 0.00 | 0.00 | 0.00 | 55 | 1015.5 |
| 20260507163049 | 61 | 276 | 0.9 | 6.1 | 0.00 | 0.00 | 0.00 | 56 | 1015.6 |
| 20260507161549 | 62 | 273 | 0.9 | 4.3 | 0.00 | 0.00 | 0.00 | 58 | 1015.9 |
| 20260507160045 | 61 | 212 | 0.0 | 4.3 | 0.00 | 0.00 | 0.00 | 59 | 1016.1 |
| 20260507154541 | 60 | 360 | 1.7 | 12.2 | 0.00 | 0.00 | 0.00 | 59 | 1016.3 |
| 20260507153043 | 60 | 360 | 0.0 | 8.7 | 0.00 | 0.00 | 0.00 | 61 | 1016.2 |
| 20260507151538 | 59 | 295 | 1.7 | 8.7 | 0.00 | 0.00 | 0.00 | 62 | 1016.5 |
| 20260507150035 | 59 | 290 | 0.0 | 2.6 | 0.00 | 0.00 | 0.00 | 64 | 1016.7 |
| 20260507144530 | 57 | 298 | 0.0 | 3.5 | 0.00 | 0.00 | 0.00 | 65 | 1016.9 |
| 20260507143028 | 57 | 360 | 0.0 | 2.6 | 0.00 | 0.00 | 0.00 | 66 | 1016.8 |
| 20260507141525 | 56 | 238 | 0.0 | 4.3 | 0.00 | 0.00 | 0.00 | 67 | 1017.0 |
| 20260507140021 | 55 | 360 | 0.0 | 2.6 | 0.00 | 0.00 | 0.00 | 69 | 1017.0 |
| 20260507134518 | 54 | 269 | 0.9 | 1.7 | 0.00 | 0.00 | 0.00 | 70 | 1017.1 |
| 20260507133013 | 53 | 321 | 0.0 | 0.9 | 0.00 | 0.00 | 0.00 | 73 | 1017.3 |
| 20260507131517 | 51 | 284 | 0.0 | 0.9 | 0.00 | 0.00 | 0.00 | 76 | 1017.3 |
| 20260507130012 | 49 | 222 | 0.0 | 0.9 | 0.00 | 0.00 | 0.00 | 79 | 1017.3 |
| 20260507124510 | 48 | 250 | 0.0 | 0.0 | 0.00 | 0.00 | 0.00 | 82 | 1017.2 |
| 20260507123004 | 46 | 286 | 0.0 | 0.0 | 0.00 | 0.00 | 0.00 | 84 | 1017.2 |
| 20260507121503 | 45 | 228 | 0.0 | 0.0 | 0.00 | 0.00 | 0.00 | 86 | 1017.1 |
| 20260507120004 | 44 | 360 | 0.0 | 1.7 | 0.00 | 0.00 | 0.00 | 86 | 1017.1 |
| 20260507114501 | 43 | 225 | 0.0 | 0.9 | 0.00 | 0.00 | 0.00 | 86 | 1017.2 |
| 20260507113103 | 43 | 221 | 0.0 | 0.0 | 0.00 | 0.00 | 0.00 | 86 | 1017.2 |
| 20260507111600 | 44 | 245 | 0.0 | 0.0 | 0.00 | 0.00 | 0.00 | 85 | 1017.1 |
| 20260507110059 | 44 | 235 | 0.0 | 0.0 | 0.00 | 0.00 | 0.00 | 84 | 1017.1 |
| 20260507104556 | 44 | 248 | 0.0 | 0.0 | 0.00 | 0.01 | 0.00 | 84 | 1017.1 |
| 20260507103055 | 44 | 235 | 0.0 | 0.0 | 0.00 | 0.01 | 0.00 | 83 | 1017.1 |
| 20260507101556 | 45 | 228 | 0.0 | 0.0 | 0.00 | 0.01 | 0.00 | 82 | 1017.3 |
| 20260507100053 | 45 | 215 | 0.0 | 0.0 | 0.00 | 0.01 | 0.00 | 81 | 1017.4 |
| 20260507094549 | 46 | 227 | 0.0 | 0.0 | 0.00 | 0.01 | 0.00 | 80 | 1017.3 |
| 20260507093053 | 46 | 242 | 0.0 | 0.0 | 0.00 | 0.01 | 0.00 | 80 | 1017.4 |
| 20260507091545 | 46 | 360 | 0.0 | 0.0 | 0.00 | 0.01 | 0.00 | 79 | 1017.4 |
| 20260507090042 | 47 | 238 | 0.0 | 2.6 | 0.00 | 0.01 | 0.00 | 78 | 1017.6 |
| 20260507084543 | 47 | 240 | 0.0 | 1.7 | 0.00 | 0.01 | 0.00 | 77 | 1017.6 |
| 20260507083039 | 47 | 275 | 0.0 | 0.0 | 0.00 | 0.01 | 0.00 | 76 | 1017.8 |
| 20260507081537 | 48 | 260 | 0.0 | 1.7 | 0.00 | 0.01 | 0.00 | 76 | 1017.9 |
| 20260507080040 | 48 | 307 | 0.0 | 0.9 | 0.00 | 0.01 | 0.00 | 75 | 1017.8 |
| 20260507074536 | 48 | 175 | 0.0 | 0.0 | 0.00 | 0.01 | 0.00 | 76 | 1017.9 |
| 20260507073037 | 48 | 249 | 0.0 | 0.0 | 0.00 | 0.01 | 0.00 | 75 | 1018.0 |
| 20260507071559 | 48 | 360 | 0.0 | 0.0 | 0.00 | 0.01 | 0.00 | 75 | 1018.0 |
| 20260507070033 | 48 | 226 | 0.0 | 0.0 | 0.00 | 0.01 | 0.00 | 75 | 1018.2 |
| 20260507064530 | 48 | 241 | 0.0 | 0.0 | 0.00 | 0.01 | 0.00 | 74 | 1018.3 |
| 20260507063026 | 49 | 360 | 0.0 | 0.0 | 0.00 | 0.01 | 0.00 | 72 | 1018.5 |
| 20260507061525 | 50 | 259 | 0.0 | 0.0 | 0.00 | 0.01 | 0.00 | 71 | 1018.7 |
| 20260507060024 | 50 | 259 | 0.0 | 0.0 | 0.00 | 0.01 | 0.00 | 70 | 1018.7 |
| 20260507054523 | 50 | 244 | 0.0 | 0.9 | 0.00 | 0.01 | 0.00 | 69 | 1018.7 |
| 20260507053022 | 50 | 360 | 0.0 | 0.0 | 0.00 | 0.01 | 0.00 | 70 | 1018.8 |
| 20260507051528 | 50 | 230 | 0.0 | 0.0 | 0.00 | 0.01 | 0.00 | 71 | 1018.7 |
| 20260507050019 | 49 | 255 | 0.0 | 0.9 | 0.00 | 0.01 | 0.00 | 71 | 1018.7 |
| 20260507044515 | 49 | 253 | 0.0 | 0.0 | 0.00 | 0.01 | 0.01 | 71 | 1018.9 |
| 20260507043015 | 49 | 233 | 0.0 | 1.7 | 0.00 | 0.01 | 0.01 | 69 | 1018.8 |
| 20260507041515 | 47 | 219 | 0.0 | 0.9 | 0.00 | 0.01 | 0.01 | 73 | 1019.0 |
| 20260507040015 | 46 | 234 | 0.0 | 0.0 | 0.00 | 0.01 | 0.01 | 76 | 1018.8 |
| 20260507034528 | 46 | 214 | 0.0 | 0.0 | 0.00 | 0.03 | 0.01 | 76 | 1018.9 |
| 20260507033023 | 46 | 214 | 0.0 | 0.0 | 0.00 | 0.03 | 0.01 | 76 | 1018.8 |
| 20260507031512 | 45 | 207 | 0.0 | 0.9 | 0.00 | 0.03 | 0.01 | 77 | 1019.1 |
| 20260507030013 | 45 | 263 | 0.0 | 0.9 | 0.00 | 0.03 | 0.01 | 77 | 1018.9 |
| 20260507024512 | 45 | 267 | 0.0 | 0.9 | 0.00 | 0.03 | 0.01 | 76 | 1018.7 |
| 20260507023019 | 46 | 268 | 0.0 | 0.0 | 0.00 | 0.03 | 0.01 | 75 | 1018.5 |
| 20260507021510 | 47 | 322 | 0.0 | 0.0 | 0.00 | 0.03 | 0.01 | 74 | 1018.3 |
| 20260507020015 | 48 | 322 | 0.0 | 0.0 | 0.00 | 0.03 | 0.01 | 72 | 1018.3 |
| 20260507014512 | 50 | 322 | 0.0 | 0.0 | 0.00 | 0.03 | 0.01 | 67 | 1018.1 |
| 20260507013008 | 53 | 322 | 0.0 | 0.0 | 0.00 | 0.03 | 0.01 | 64 | 1017.9 |
| 20260507011507 | 56 | 322 | 0.0 | 0.0 | 0.00 | 0.03 | 0.01 | 59 | 1017.9 |
| 20260507010013 | 57 | 322 | 0.0 | 0.0 | 0.00 | 0.03 | 0.01 | 54 | 1018.0 |
| 20260507004506 | 57 | 322 | 0.0 | 0.9 | 0.00 | 0.03 | 0.01 | 47 | 1017.9 |
| 20260507003006 | 58 | 21 | 0.0 | 1.7 | 0.00 | 0.03 | 0.01 | 44 | 1018.0 |
| 20260507001505 | 59 | 149 | 0.0 | 0.0 | 0.00 | 0.03 | 0.01 | 42 | 1017.9 |
| 20260507000011 | 60 | 55 | 0.0 | 0.0 | 0.00 | 0.03 | 0.01 | 39 | 1018.1 |
| 20260506234508 | 60 | 348 | 0.0 | 0.0 | 0.00 | 0.03 | 0.01 | 40 | 1018.1 |
| 20260506233004 | 61 | 53 | 0.0 | 0.0 | 0.00 | 0.03 | 0.01 | 38 | 1018.1 |
| 20260506231506 | 61 | 11 | 0.0 | 0.9 | 0.00 | 0.03 | 0.01 | 41 | 1018.1 |
| 20260506230003 | 61 | 306 | 0.0 | 2.6 | 0.00 | 0.03 | 0.01 | 39 | 1018.4 |
| 20260506224502 | 61 | 325 | 0.0 | 0.0 | 0.00 | 0.03 | 0.01 | 39 | 1018.4 |
| 20260506223001 | 61 | 351 | 0.0 | 1.7 | 0.00 | 0.03 | 0.01 | 36 | 1018.4 |
| 20260506221505 | 61 | 46 | 0.0 | 0.0 | 0.00 | 0.03 | 0.01 | 37 | 1018.4 |
| 20260506220001 | 62 | 350 | 0.0 | 0.9 | 0.00 | 0.10 | 0.01 | 36 | 1018.5 |
| 20260506214605 | 61 | 355 | 0.0 | 4.3 | 0.00 | 0.10 | 0.01 | 37 | 1018.7 |
| 20260506213059 | 62 | 69 | 0.0 | 1.7 | 0.00 | 0.10 | 0.01 | 37 | 1018.8 |
| 20260506211606 | 61 | 44 | 0.0 | 1.7 | 0.00 | 0.10 | 0.01 | 37 | 1018.9 |
| 20260506210059 | 63 | 40 | 0.0 | 4.3 | 0.00 | 0.10 | 0.01 | 38 | 1019.1 |
| 20260506204559 | 62 | 319 | 0.0 | 3.5 | 0.00 | 0.10 | 0.01 | 38 | 1019.3 |
| 20260506203055 | 61 | 88 | 0.0 | 2.6 | 0.00 | 0.10 | 0.01 | 36 | 1019.4 |